AFL732 LPPR-LPPT
Flight info
| Callsign | AFL732 |
|---|---|
| Flight time | N/A |
| Altitude | 33000 |
| Route | MANIK DCT ABRIL DCT XAMAX |
| Aircraft | A320/M-SDE3FGHIRWY/LB1 |
Departure
| Time | 2026-05-04 15:23 |
|---|---|
| Airport | Francisco de Sá Carneiro Airport (LPPR) |
Arrival
| Time | N/A |
|---|---|
| Airport | Lisbon Humberto Delgado Airport (LPPT) |
| Time | Latitude | Longitude | Altitude | Speed | Heading |
|---|---|---|---|---|---|
| 2026-05-04 14:43 | 41.23372 | -8.67155 | 244 ft | 0 kts | 54° |
| 2026-05-04 15:10 | 41.23358 | -8.67181 | 243 ft | 2 kts | 54° |
| 2026-05-04 15:10 | 41.23350 | -8.67198 | 243 ft | 2 kts | 76° |
| 2026-05-04 15:10 | 41.23354 | -8.67237 | 241 ft | 2 kts | 106° |
| 2026-05-04 15:11 | 41.23360 | -8.67255 | 240 ft | 2 kts | 111° |
| 2026-05-04 15:11 | 41.23365 | -8.67274 | 240 ft | 2 kts | 110° |
| 2026-05-04 15:11 | 41.23370 | -8.67293 | 239 ft | 2 kts | 110° |
| 2026-05-04 15:11 | 41.23375 | -8.67311 | 238 ft | 2 kts | 110° |
| 2026-05-04 15:12 | 41.23380 | -8.67330 | 238 ft | 2 kts | 110° |
| 2026-05-04 15:12 | 41.23388 | -8.67347 | 237 ft | 2 kts | 132° |
| 2026-05-04 15:12 | 41.23399 | -8.67361 | 236 ft | 2 kts | 148° |
| 2026-05-04 15:12 | 41.23413 | -8.67369 | 236 ft | 1 kts | 165° |
| 2026-05-04 15:13 | 41.23419 | -8.67371 | 236 ft | 1 kts | 172° |
| 2026-05-04 15:13 | 41.23422 | -8.67371 | 236 ft | 0 kts | 170° |
| 2026-05-04 15:16 | 41.23418 | -8.67371 | 236 ft | 1 kts | 169° |
| 2026-05-04 15:17 | 41.23392 | -8.67366 | 236 ft | 6 kts | 180° |
| 2026-05-04 15:17 | 41.23344 | -8.67410 | 234 ft | 0 kts | 254° |
| 2026-05-04 15:21 | 41.23338 | -8.67436 | 233 ft | 11 kts | 253° |
| 2026-05-04 15:21 | 41.23305 | -8.67612 | 227 ft | 21 kts | 257° |
| 2026-05-04 15:21 | 41.23351 | -8.67742 | 221 ft | 0 kts | 350° |
| 2026-05-04 15:22 | 41.24217 | -8.67976 | 205 ft | 130 kts | 348° |
| 2026-05-04 15:23 | 41.25288 | -8.68272 | 253 ft | 175 kts | 347° |
| 2026-05-04 15:23 | 41.26538 | -8.68528 | 791 ft | 181 kts | 347° |
| 2026-05-04 15:23 | 41.27734 | -8.68857 | 1563 ft | 179 kts | 345° |
| 2026-05-04 15:23 | 41.28995 | -8.69224 | 2156 ft | 194 kts | 345° |
| 2026-05-04 15:24 | 41.31842 | -8.70023 | 3209 ft | 227 kts | 346° |
| 2026-05-04 15:24 | 41.35157 | -8.70909 | 4313 ft | 251 kts | 346° |
| 2026-05-04 15:25 | 41.36768 | -8.71328 | 4624 ft | 224 kts | 346° |
| 2026-05-04 15:25 | 41.38289 | -8.71727 | 4342 ft | 223 kts | 346° |
| 2026-05-04 15:25 | 41.39813 | -8.72194 | 3999 ft | 223 kts | 336° |
| 2026-05-04 15:26 | 41.41747 | -8.75195 | 3328 ft | 221 kts | 283° |
| 2026-05-04 15:26 | 41.41763 | -8.77227 | 3016 ft | 223 kts | 262° |
| 2026-05-04 15:26 | 41.41151 | -8.81272 | 2361 ft | 225 kts | 260° |
| 2026-05-04 15:27 | 41.40626 | -8.83221 | 1991 ft | 230 kts | 237° |
| 2026-05-04 15:27 | 41.37840 | -8.85111 | 1352 ft | 238 kts | 179° |